createdAt,value
2023-01-10T00:03:58.619Z,28.73
2023-01-10T00:06:26.012Z,30.83
2023-01-10T00:08:53.245Z,31.47
2023-01-10T00:11:39.511Z,37.87
2023-01-10T00:14:06.773Z,28.57
2023-01-10T00:16:34.666Z,33.27
2023-01-10T00:19:01.990Z,30.53
2023-01-10T00:21:31.279Z,32.60
2023-01-10T00:24:13.787Z,32.23
2023-01-10T00:26:41.534Z,32.90
2023-01-10T00:29:09.903Z,35.08
2023-01-10T00:31:37.110Z,41.83
2023-01-10T00:34:04.328Z,38.33
2023-01-10T00:36:31.900Z,36.27
2023-01-10T00:38:59.127Z,38.97
2023-01-10T00:41:52.573Z,34.20
2023-01-10T00:44:20.213Z,39.17
2023-01-10T00:46:47.438Z,37.03
2023-01-10T00:49:16.465Z,34.67
2023-01-10T00:54:12.925Z,35.57
2023-01-10T00:56:40.496Z,39.63
2023-01-10T00:59:08.714Z,35.53
2023-01-10T01:01:37.122Z,40.37
2023-01-10T01:04:04.705Z,35.10
2023-01-10T01:06:32.366Z,38.70
2023-01-10T01:08:59.544Z,39.43
2023-01-10T01:11:26.960Z,48.07
2023-01-10T01:13:54.546Z,40.37
2023-01-10T01:16:22.604Z,42.63
2023-01-10T01:18:49.901Z,35.63
2023-01-10T01:21:17.413Z,40.60
2023-01-10T01:23:44.703Z,40.97
2023-01-10T01:26:12.004Z,41.47
2023-01-10T01:28:39.625Z,52.30
2023-01-10T01:31:10.953Z,48.97
2023-01-10T01:33:38.446Z,46.30
2023-01-10T01:36:13.622Z,43.77
2023-01-10T01:38:41.654Z,47.83
2023-01-10T01:41:29.595Z,46.03
2023-01-10T01:44:11.106Z,48.43
2023-01-10T01:46:40.336Z,36.27
2023-01-10T01:49:19.918Z,41.20
2023-01-10T01:51:51.943Z,44.40
2023-01-10T01:54:19.657Z,34.90
2023-01-10T01:56:53.901Z,35.53
2023-01-10T01:59:31.963Z,38.73
2023-01-10T02:02:04.345Z,43.63
2023-01-10T02:04:42.537Z,39.50
2023-01-10T02:07:11.588Z,41.43
2023-01-10T02:09:54.283Z,38.22
2023-01-10T02:12:21.891Z,42.57
2023-01-10T02:14:51.627Z,42.43
2023-01-10T02:17:19.095Z,39.60
2023-01-10T02:20:07.406Z,42.53
2023-01-10T02:22:53.622Z,40.77
2023-01-10T02:25:51.340Z,44.87
2023-01-10T02:28:50.233Z,48.70
2023-01-10T02:34:30.829Z,46.50
2023-01-10T02:37:17.631Z,41.73
2023-01-10T02:40:03.227Z,43.27
2023-01-10T02:42:42.864Z,40.20
2023-01-10T02:47:44.549Z,40.17
2023-01-10T02:50:33.901Z,43.30
2023-01-10T02:53:08.417Z,41.37
2023-01-10T02:55:57.477Z,49.17
2023-01-10T02:58:45.748Z,43.53
2023-01-10T03:01:18.987Z,42.67
2023-01-10T03:04:19.465Z,41.70
2023-01-10T03:06:52.796Z,42.20
2023-01-10T03:09:31.551Z,41.87
2023-01-10T03:12:15.937Z,33.73
2023-01-10T03:14:46.644Z,40.43
2023-01-10T03:17:16.112Z,34.47
2023-01-10T03:19:51.441Z,39.27
2023-01-10T03:22:18.928Z,37.27
2023-01-10T03:24:49.956Z,36.90
2023-01-10T03:27:52.781Z,37.17
2023-01-10T03:30:39.526Z,35.97
2023-01-10T03:33:07.198Z,36.57
2023-01-10T03:36:09.366Z,41.10
2023-01-10T03:38:46.605Z,36.43
2023-01-10T03:41:22.979Z,35.83
2023-01-10T03:44:38.102Z,33.47
2023-01-10T03:47:28.255Z,33.57
2023-01-10T03:52:26.587Z,38.53
2023-01-10T03:54:54.271Z,33.93
2023-01-10T03:57:23.990Z,38.90
2023-01-10T03:59:59.105Z,35.70
2023-01-10T04:02:32.213Z,36.83
2023-01-10T04:05:00.066Z,35.97
2023-01-10T04:07:27.889Z,37.23
2023-01-10T04:09:55.322Z,34.50
2023-01-10T04:12:23.008Z,36.67
2023-01-10T04:14:50.516Z,34.87
2023-01-10T04:17:18.356Z,37.90
2023-01-10T04:19:46.252Z,36.30
2023-01-10T04:22:13.595Z,41.27
2023-01-10T04:24:41.329Z,45.27
2023-01-10T04:27:09.004Z,40.80
2023-01-10T04:29:36.397Z,41.43
2023-01-10T04:32:03.818Z,40.37
2023-01-10T04:34:31.566Z,40.17
2023-01-10T04:36:58.954Z,34.93
2023-01-10T04:39:26.457Z,35.67
2023-01-10T04:41:54.227Z,47.47
2023-01-10T04:44:21.572Z,43.47
2023-01-10T04:46:48.871Z,41.23
2023-01-10T04:49:16.521Z,41.80
2023-01-10T04:51:43.866Z,36.50
2023-01-10T04:54:11.220Z,39.77
2023-01-10T04:56:38.888Z,36.73
2023-01-10T04:59:06.836Z,33.50
2023-01-10T05:01:36.529Z,39.10
2023-01-10T05:04:04.490Z,34.93
2023-01-10T05:06:32.214Z,29.70
2023-01-10T05:08:59.495Z,36.37
2023-01-10T05:11:27.364Z,33.83
2023-01-10T05:13:54.748Z,37.03
2023-01-10T05:16:22.405Z,30.23
2023-01-10T05:18:50.963Z,31.33
2023-01-10T05:21:18.685Z,30.90
2023-01-10T05:23:46.143Z,29.67
2023-01-10T05:26:20.550Z,33.70
2023-01-10T05:28:48.060Z,33.83
2023-01-10T05:31:18.081Z,30.23
2023-01-10T05:33:51.166Z,32.90
2023-01-10T05:36:19.698Z,32.63
2023-01-10T05:38:47.131Z,26.60
2023-01-10T05:41:14.688Z,33.77
2023-01-10T05:43:42.439Z,28.97
2023-01-10T05:46:10.053Z,29.07
2023-01-10T05:48:38.013Z,30.47
2023-01-10T05:51:06.073Z,38.83
2023-01-10T05:53:33.545Z,31.73
2023-01-10T05:56:02.535Z,38.53
2023-01-10T06:00:58.477Z,36.13
2023-01-10T06:03:26.885Z,38.88
2023-01-10T06:05:55.884Z,37.10
2023-01-10T06:08:24.335Z,39.05
2023-01-10T06:10:52.337Z,35.80
2023-01-10T06:13:19.759Z,40.07
2023-01-10T06:15:47.549Z,33.30
2023-01-10T06:18:15.594Z,33.83
2023-01-10T06:20:43.795Z,37.50
2023-01-10T06:23:11.442Z,34.50
2023-01-10T06:25:41.834Z,36.40
2023-01-10T06:28:10.926Z,35.77
2023-01-10T06:33:08.971Z,32.60
2023-01-10T06:35:37.241Z,38.20
2023-01-10T06:38:05.674Z,37.47
2023-01-10T06:40:33.066Z,40.57
2023-01-10T06:43:00.554Z,36.90
2023-01-10T06:45:28.292Z,36.43
2023-01-10T06:47:55.671Z,35.53
2023-01-10T06:50:23.087Z,39.40
2023-01-10T06:52:59.622Z,40.53
2023-01-10T06:55:27.645Z,43.03
2023-01-10T06:57:57.736Z,40.00
2023-01-10T07:00:27.586Z,40.50
2023-01-10T07:02:58.454Z,50.20
2023-01-10T07:05:25.817Z,52.07
2023-01-10T07:07:53.185Z,50.00
2023-01-10T07:10:20.885Z,47.63
2023-01-10T07:12:48.206Z,47.63
2023-01-10T07:15:15.708Z,34.07
2023-01-10T07:17:43.402Z,33.60
2023-01-10T07:20:11.416Z,33.30
2023-01-10T07:22:38.810Z,33.97
2023-01-10T07:25:07.030Z,34.33
2023-01-10T07:27:35.024Z,33.53
2023-01-10T07:30:02.578Z,33.87
2023-01-10T07:32:30.292Z,34.90
2023-01-10T07:34:57.676Z,36.50
2023-01-10T07:41:48.117Z,33.10
2023-01-10T07:44:16.803Z,33.67
2023-01-10T07:46:44.182Z,36.80
2023-01-10T07:49:11.702Z,31.60
2023-01-10T07:51:39.318Z,32.23
2023-01-10T07:54:06.702Z,30.37
2023-01-10T07:56:34.245Z,38.43
2023-01-10T07:59:01.913Z,31.43
2023-01-10T08:01:30.619Z,35.07
2023-01-10T08:03:58.963Z,30.45
2023-01-10T08:06:26.300Z,37.63
2023-01-10T08:08:53.613Z,35.67
2023-01-10T08:11:21.296Z,33.93
2023-01-10T08:13:49.005Z,27.43
2023-01-10T08:16:16.402Z,30.43
2023-01-10T08:18:44.241Z,21.73
2023-01-10T08:21:11.658Z,24.03
2023-01-10T08:23:38.998Z,20.70
2023-01-10T08:26:07.321Z,20.50
2023-01-10T08:28:34.659Z,18.47
2023-01-10T08:31:07.104Z,17.10
2023-01-10T08:33:35.409Z,17.27
2023-01-10T08:36:02.824Z,15.27
2023-01-10T08:38:30.253Z,16.63
2023-01-10T08:40:58.747Z,17.63
2023-01-10T08:43:26.055Z,15.90
2023-01-10T08:45:53.440Z,18.77
2023-01-10T08:48:21.438Z,18.17
2023-01-10T08:50:48.959Z,18.80
2023-01-10T08:53:16.355Z,19.33
2023-01-10T08:55:48.803Z,17.93
2023-01-10T08:58:16.488Z,15.73
2023-01-10T09:00:45.335Z,16.73
2023-01-10T09:03:13.082Z,15.60
2023-01-10T09:05:41.149Z,14.63
2023-01-10T09:08:08.574Z,13.33
2023-01-10T09:10:36.466Z,15.57
2023-01-10T09:13:05.166Z,15.80
2023-01-10T09:15:35.063Z,16.65
2023-01-10T09:18:05.696Z,16.27
2023-01-10T09:20:36.853Z,16.17
2023-01-10T09:23:11.688Z,27.07
2023-01-10T09:25:39.086Z,35.33
2023-01-10T09:28:07.097Z,19.60
2023-01-10T09:30:34.903Z,13.87
2023-01-10T09:33:02.803Z,14.13
2023-01-10T09:35:31.695Z,23.53
2023-01-10T09:38:01.626Z,42.55
2023-01-10T09:40:47.705Z,66.87
2023-01-10T09:43:35.613Z,56.23
2023-01-10T09:46:23.967Z,57.77
2023-01-10T09:49:16.606Z,55.80
2023-01-10T09:51:51.185Z,57.20
2023-01-10T09:54:32.550Z,60.67
2023-01-10T09:57:01.570Z,55.17
2023-01-10T10:02:14.806Z,29.23
2023-01-10T10:04:42.711Z,29.47
2023-01-10T10:07:14.714Z,40.10
2023-01-10T10:09:43.629Z,48.23
2023-01-10T10:12:41.813Z,41.85
2023-01-10T10:15:09.678Z,36.97
2023-01-10T10:18:07.068Z,42.47
2023-01-10T10:20:58.008Z,47.17
2023-01-10T10:24:07.574Z,56.60
2023-01-10T10:26:40.715Z,49.67
2023-01-10T10:29:26.292Z,45.07
2023-01-10T10:32:05.996Z,53.67
2023-01-10T10:37:21.915Z,35.70
2023-01-10T10:39:55.284Z,35.77
2023-01-10T10:42:27.319Z,31.50
2023-01-10T10:45:02.726Z,23.83
2023-01-10T10:47:36.919Z,22.43
2023-01-10T10:50:16.622Z,23.50
2023-01-10T10:52:46.025Z,28.97
2023-01-10T10:55:19.356Z,22.98
2023-01-10T10:57:59.574Z,22.27
2023-01-10T11:00:29.802Z,22.33
2023-01-10T11:03:11.087Z,23.33
2023-01-10T11:05:46.640Z,25.80
2023-01-10T11:08:17.588Z,28.60
2023-01-10T11:10:49.042Z,31.10
2023-01-10T11:13:34.889Z,53.10
2023-01-10T11:16:04.757Z,80.53
2023-01-10T11:18:34.056Z,72.57
2023-01-10T11:21:01.595Z,68.22
2023-01-10T11:23:41.237Z,73.90
2023-01-10T11:26:31.199Z,81.90
2023-01-10T11:29:18.868Z,81.10
2023-01-10T11:31:48.819Z,63.67
2023-01-10T11:34:24.779Z,54.63
2023-01-10T11:37:25.156Z,52.53
2023-01-10T11:40:24.276Z,41.23
2023-01-10T11:42:59.126Z,40.90
2023-01-10T11:45:33.108Z,34.40
2023-01-10T11:48:34.204Z,34.17
2023-01-10T11:51:19.416Z,34.67
2023-01-10T11:53:49.140Z,25.13
2023-01-10T11:56:29.035Z,25.63
2023-01-10T11:58:59.978Z,24.33
2023-01-10T12:01:43.468Z,27.07
2023-01-10T12:04:21.276Z,22.27
2023-01-10T12:06:55.016Z,26.17
2023-01-10T12:09:36.065Z,48.57
2023-01-10T12:12:28.460Z,51.57
2023-01-10T12:14:59.132Z,69.53
2023-01-10T12:17:40.094Z,71.17
2023-01-10T12:20:14.361Z,29.03
2023-01-10T12:22:46.124Z,60.13
2023-01-10T12:25:41.350Z,47.37
2023-01-10T12:28:30.296Z,55.47
2023-01-10T12:33:33.199Z,32.17
2023-01-10T12:36:14.431Z,34.33
2023-01-10T12:39:04.406Z,76.43
2023-01-10T12:42:03.692Z,75.17
2023-01-10T12:44:39.806Z,80.07
2023-01-10T12:47:28.143Z,87.47
2023-01-10T12:49:57.673Z,106.87
2023-01-10T12:52:25.338Z,101.90
2023-01-10T12:54:52.853Z,107.77
2023-01-10T12:57:32.042Z,103.50
2023-01-10T13:00:04.269Z,103.50
2023-01-10T13:02:44.287Z,95.43
2023-01-10T13:05:21.783Z,75.37
2023-01-10T13:07:51.948Z,69.33
2023-01-10T13:10:23.255Z,39.23
2023-01-10T13:12:57.827Z,24.00
2023-01-10T13:15:32.585Z,22.47
2023-01-10T13:18:15.850Z,25.37
2023-01-10T13:20:44.458Z,27.97
2023-01-10T13:23:23.237Z,26.53
2023-01-10T13:26:01.034Z,30.83
2023-01-10T13:28:31.037Z,32.10
2023-01-10T13:31:06.047Z,32.60
2023-01-10T13:33:56.680Z,31.97
2023-01-10T13:36:31.770Z,34.10
2023-01-10T13:39:03.092Z,36.77
2023-01-10T13:42:17.600Z,34.80
2023-01-10T13:45:10.163Z,32.00
2023-01-10T13:47:40.967Z,29.53
2023-01-10T13:50:23.856Z,35.17
2023-01-10T13:53:02.453Z,31.03
2023-01-10T13:55:39.109Z,32.43
2023-01-10T13:58:09.922Z,26.57
2023-01-10T14:00:55.837Z,21.00
2023-01-10T14:03:45.162Z,23.73
2023-01-10T14:06:18.606Z,19.35
2023-01-10T14:08:54.963Z,22.27
2023-01-10T14:11:29.673Z,20.80
2023-01-10T14:14:01.910Z,23.10
2023-01-10T14:16:32.568Z,21.70
2023-01-10T14:19:02.460Z,21.93
2023-01-10T14:21:31.563Z,21.10
2023-01-10T14:23:59.339Z,24.63
2023-01-10T14:26:33.298Z,18.80
2023-01-10T14:29:08.925Z,15.37
2023-01-10T14:31:38.919Z,16.53
2023-01-10T14:34:14.835Z,19.87
2023-01-10T14:36:55.997Z,12.63
2023-01-10T14:39:24.040Z,15.93
2023-01-10T14:41:54.716Z,21.50
2023-01-10T14:44:46.047Z,18.50
2023-01-10T14:47:29.605Z,27.73
2023-01-10T14:50:07.159Z,21.73
2023-01-10T14:52:34.934Z,18.60
2023-01-10T14:55:08.184Z,18.67
2023-01-10T14:57:35.948Z,22.07
2023-01-10T15:00:17.735Z,21.93
2023-01-10T15:02:47.855Z,25.03
2023-01-10T15:05:21.665Z,23.73
2023-01-10T15:07:49.550Z,18.10
2023-01-10T15:10:31.606Z,30.97
2023-01-10T15:13:03.325Z,49.60
2023-01-10T15:15:34.741Z,70.80
2023-01-10T15:18:09.008Z,107.97
2023-01-10T15:20:36.434Z,55.03
2023-01-10T15:23:04.206Z,43.97
2023-01-10T15:25:39.480Z,60.30
2023-01-10T15:28:18.223Z,59.43
2023-01-10T15:30:46.262Z,63.78
2023-01-10T15:33:23.765Z,53.63
2023-01-10T15:35:51.192Z,81.43
2023-01-10T15:38:24.171Z,76.13
2023-01-10T15:41:02.908Z,63.53
2023-01-10T15:43:35.952Z,66.60
2023-01-10T15:46:06.206Z,23.60
2023-01-10T15:48:35.099Z,27.97
2023-01-10T15:51:15.667Z,24.37
2023-01-10T15:54:13.243Z,61.33
2023-01-10T15:56:52.448Z,29.47
2023-01-10T15:59:37.301Z,53.23
2023-01-10T16:02:27.419Z,61.77
2023-01-10T16:05:06.522Z,44.33
2023-01-10T16:07:35.533Z,30.48
2023-01-10T16:12:57.301Z,47.23
2023-01-10T16:15:27.791Z,54.75
2023-01-10T16:17:55.154Z,59.67
2023-01-10T16:20:35.671Z,72.37
2023-01-10T16:23:05.915Z,33.53
2023-01-10T16:25:39.185Z,29.00
2023-01-10T16:28:06.951Z,17.23
2023-01-10T16:30:35.365Z,19.50
2023-01-10T16:33:11.405Z,9.20
2023-01-10T16:35:39.606Z,10.17
2023-01-10T16:38:08.372Z,19.00
2023-01-10T16:40:38.713Z,14.55
2023-01-10T16:43:18.575Z,15.57
2023-01-10T16:45:51.070Z,14.77
2023-01-10T16:48:20.425Z,18.57
2023-01-10T16:50:48.768Z,17.75
2023-01-10T16:53:18.875Z,16.77
2023-01-10T16:55:52.256Z,21.27
2023-01-10T16:58:20.852Z,13.57
2023-01-10T17:00:52.737Z,15.23
2023-01-10T17:03:23.648Z,10.30
2023-01-10T17:05:51.973Z,27.77
2023-01-10T17:08:21.553Z,22.80
2023-01-10T17:10:53.962Z,227.63
2023-01-10T17:13:25.342Z,36.50
2023-01-10T17:15:52.784Z,20.37
2023-01-10T17:18:20.314Z,21.67
2023-01-10T17:20:47.922Z,18.03
2023-01-10T17:23:15.821Z,13.77
2023-01-10T17:25:43.455Z,11.23
2023-01-10T17:28:12.246Z,5.30
2023-01-10T17:30:40.687Z,8.32
2023-01-10T17:33:11.096Z,12.53
2023-01-10T17:35:42.824Z,9.23
2023-01-10T17:38:11.836Z,5.50
2023-01-10T17:43:11.247Z,14.07
2023-01-10T17:45:43.049Z,6.47
2023-01-10T17:48:13.295Z,19.70
2023-01-10T17:50:44.106Z,15.37
2023-01-10T17:53:12.648Z,8.30
2023-01-10T17:55:50.412Z,5.87
2023-01-10T17:58:18.818Z,20.23
2023-01-10T18:00:46.774Z,11.93
2023-01-10T18:03:15.054Z,9.93
2023-01-10T18:05:50.757Z,13.87
2023-01-10T18:08:19.228Z,7.33
2023-01-10T18:10:47.529Z,11.33
2023-01-10T18:13:17.846Z,13.70
2023-01-10T18:15:48.177Z,7.97
2023-01-10T18:18:16.919Z,8.50
2023-01-10T18:20:45.299Z,8.45
2023-01-10T18:23:21.208Z,5.18
2023-01-10T18:26:03.820Z,3.10
2023-01-10T18:28:41.041Z,5.77
2023-01-10T18:31:17.299Z,15.13
2023-01-10T18:33:46.793Z,5.77
2023-01-10T18:36:19.861Z,10.47
2023-01-10T18:38:48.444Z,10.27
2023-01-10T18:41:17.009Z,9.17
2023-01-10T18:43:44.943Z,7.97
2023-01-10T18:46:21.150Z,19.77
2023-01-10T18:48:51.624Z,12.50
2023-01-10T18:51:19.526Z,10.60
2023-01-10T18:53:47.779Z,8.90
2023-01-10T18:56:16.218Z,21.17
2023-01-10T18:58:44.337Z,18.40
2023-01-10T19:01:20.631Z,16.13
2023-01-10T19:03:50.289Z,24.70
2023-01-10T19:06:20.066Z,11.77
2023-01-10T19:08:47.868Z,7.90
2023-01-10T19:11:16.877Z,8.80
2023-01-10T19:13:46.092Z,7.30
2023-01-10T19:18:41.787Z,18.80
2023-01-10T19:21:15.607Z,10.57
2023-01-10T19:23:45.707Z,33.33
2023-01-10T19:26:14.168Z,22.30
2023-01-10T19:28:42.813Z,12.27
2023-01-10T19:31:15.446Z,39.35
2023-01-10T19:33:44.258Z,418.50
2023-01-10T19:36:12.330Z,232.62
2023-01-10T19:38:39.743Z,375.57
2023-01-10T19:41:07.518Z,87.53
2023-01-10T19:43:37.273Z,11.50
2023-01-10T19:46:09.721Z,16.90
2023-01-10T19:48:38.568Z,7.03
2023-01-10T19:51:08.098Z,4.70
2023-01-10T19:53:37.200Z,9.00
2023-01-10T19:58:36.069Z,16.00
2023-01-10T20:01:24.432Z,5.82
2023-01-10T20:03:52.836Z,12.20
2023-01-10T20:06:22.934Z,13.93
2023-01-10T20:08:51.273Z,23.70
2023-01-10T20:11:19.673Z,17.77
2023-01-10T20:13:49.531Z,14.57
2023-01-10T20:16:24.186Z,11.87
2023-01-10T20:18:52.412Z,4.73
2023-01-10T20:21:20.213Z,3.53
2023-01-10T20:23:48.415Z,2.53
2023-01-10T20:26:20.822Z,4.00
2023-01-10T20:28:50.698Z,8.30
2023-01-10T20:31:22.074Z,1.73
2023-01-10T20:33:49.730Z,2.43
2023-01-10T20:36:19.715Z,1.50
2023-01-10T20:38:47.857Z,3.80
2023-01-10T20:41:18.194Z,1.57
2023-01-10T20:43:46.580Z,2.97
2023-01-10T20:46:17.623Z,1.92
2023-01-10T20:48:45.841Z,3.20
2023-01-10T20:51:21.391Z,2.07
2023-01-10T20:53:50.421Z,1.10
2023-01-10T20:56:23.530Z,1.77
2023-01-10T20:58:52.419Z,3.83
2023-01-10T21:01:35.835Z,3.12
2023-01-10T21:04:06.019Z,7.60
2023-01-10T21:06:34.451Z,7.53
2023-01-10T21:09:02.405Z,3.35
2023-01-10T21:11:30.154Z,4.80
2023-01-10T21:13:57.650Z,3.27
2023-01-10T21:16:25.785Z,4.03
2023-01-10T21:18:53.797Z,3.35
2023-01-10T21:21:24.885Z,4.07
2023-01-10T21:23:55.073Z,5.90
2023-01-10T21:26:23.258Z,5.50
2023-01-10T21:28:50.639Z,3.63
2023-01-10T21:31:20.624Z,2.77
2023-01-10T21:33:49.639Z,4.60
2023-01-10T21:36:17.822Z,3.78
2023-01-10T21:38:45.572Z,3.83
2023-01-10T21:41:35.622Z,3.27
2023-01-10T21:44:04.996Z,2.87
2023-01-10T21:46:33.340Z,5.50
2023-01-10T21:49:05.249Z,4.30
2023-01-10T21:51:33.268Z,6.17
2023-01-10T21:54:00.748Z,7.67
2023-01-10T21:56:28.206Z,2.67
2023-01-10T21:58:56.253Z,4.50
2023-01-10T22:01:23.684Z,9.97
2023-01-10T22:03:51.345Z,4.47
2023-01-10T22:06:18.645Z,4.87
2023-01-10T22:08:46.059Z,7.63
2023-01-10T22:11:13.614Z,8.00
2023-01-10T22:13:41.171Z,6.80
2023-01-10T22:16:08.673Z,4.73
2023-01-10T22:18:36.595Z,3.93
2023-01-10T22:21:04.185Z,4.93
2023-01-10T22:23:31.658Z,4.23
2023-01-10T22:26:03.484Z,3.10
2023-01-10T22:28:31.142Z,3.67
2023-01-10T22:30:59.041Z,7.87
2023-01-10T22:33:31.477Z,5.67
2023-01-10T22:36:13.147Z,7.93
2023-01-10T22:38:41.839Z,6.73
2023-01-10T22:41:11.948Z,6.25
2023-01-10T22:43:39.537Z,4.23
2023-01-10T22:46:07.604Z,2.27
2023-01-10T22:48:36.177Z,4.30
2023-01-10T22:51:05.477Z,9.63
2023-01-10T22:56:02.245Z,3.80
2023-01-10T22:58:29.775Z,61.75
2023-01-10T23:00:57.506Z,79.67
2023-01-10T23:03:25.331Z,20.53
2023-01-10T23:05:57.029Z,9.20
2023-01-10T23:08:28.896Z,2.17
2023-01-10T23:10:56.365Z,5.30
2023-01-10T23:13:24.986Z,5.87
2023-01-10T23:16:00.822Z,5.32
2023-01-10T23:18:29.264Z,9.83
2023-01-10T23:20:57.279Z,6.60
2023-01-10T23:23:25.918Z,7.23
2023-01-10T23:26:03.091Z,7.20
2023-01-10T23:28:33.486Z,4.47
2023-01-10T23:31:00.993Z,4.23
2023-01-10T23:33:29.027Z,3.00
2023-01-10T23:35:56.699Z,1.77
2023-01-10T23:38:24.189Z,5.37
2023-01-10T23:40:52.190Z,15.93
2023-01-10T23:43:19.836Z,22.03
2023-01-10T23:45:47.336Z,16.53
2023-01-10T23:48:15.049Z,20.13
2023-01-10T23:50:42.778Z,21.93
2023-01-10T23:53:10.063Z,15.07
2023-01-10T23:55:37.316Z,16.77
2023-01-10T23:58:04.992Z,8.93
